Accueil
METAR-TAF:

METAR-TAF

Aéroports :

Base navale de Norfolk

Norfolk, Virginie, États-Unis

latitude: 36-56-01N, longitude: 076-17-45W, altitude: 4 m

Observation

Le bulletin a été fait il y a 48 minutes, à 21:59 UTC
Vent 10 kt de nord-ouest
Température 11°C
Humidité 54%
Pression 1020 hPa
Visibilité: 16.1 km
Nuages épars à une hauteur de 6500 ft

METAR: KNGU 202159Z 32010KT 10SM SCT065 11/02 A3012 RMK AO2 SLP198 T01110022

Heure: 17:47 (22:47 UTC)

Prévision

Prévision valable du 20 à 15 UTC au 21 à 15 UTC
Vent 12 kt de nord-ouest
Visibilité 10 km ou plus
Nuages épars à une hauteur de 5000 ft
Nuages fragmentés à une hauteur de 18000 ft
A partir de 21 à 0200 UTC
Vent 11 kt de nord/nord-ouest
Visibilité 10 km ou plus
Ciel clair

TAF: KNGU 2015/2115 32012KT 9999 SCT050 BKN180 QNH3000INS FM210200 34011KT 9999 SKC QNH3015INS T12/2019Z T06/2109Z FN20002

Observations et prévisions météorologiques de plus de 4000 aéroports (messages METAR et TAF).

Les stations disponibles sont représentées par des disques jaunes et rouges sur la carte.

Passer la souris dessus pour voir le nom de la station.

Cliquer dessus pour voir les observations et prévisions météorologiques.

Pour changer de carte: cliquez sur les boutons verts avec une croix noire pour zoomer, sur le bouton vert avec un tiret pour effectuer un zoom arrière, ou sur les flèches vertes pour les cartes adjacentes.


METAR-TAF: